createdAt,value
2019-05-17T00:00:07.530Z,0
2019-05-17T00:01:08.032Z,0
2019-05-17T00:02:08.698Z,0
2019-05-17T00:03:08.174Z,0
2019-05-17T00:04:09.426Z,0
2019-05-17T00:05:12.084Z,0
2019-05-17T00:06:12.030Z,0
2019-05-17T00:07:13.161Z,0
2019-05-17T00:08:13.423Z,0
2019-05-17T00:09:12.307Z,0
2019-05-17T00:10:13.253Z,0
2019-05-17T00:11:13.370Z,0
2019-05-17T00:12:13.754Z,0
2019-05-17T00:13:19.912Z,0
2019-05-17T00:14:17.109Z,0
2019-05-17T00:15:17.745Z,0
2019-05-17T00:16:17.860Z,0
2019-05-17T00:17:17.579Z,0
2019-05-17T00:18:17.721Z,0
2019-05-17T00:19:18.490Z,0
2019-05-17T00:20:18.607Z,0
2019-05-17T00:21:18.997Z,0
2019-05-17T00:22:22.219Z,0
2019-05-17T00:23:19.626Z,0
2019-05-17T00:24:23.587Z,0
2019-05-17T00:25:23.638Z,0
2019-05-17T00:26:23.639Z,0
2019-05-17T00:27:23.024Z,0
2019-05-17T00:28:23.637Z,0
2019-05-17T00:29:26.313Z,0
2019-05-17T00:30:26.504Z,0
2019-05-17T00:31:27.469Z,0
2019-05-17T00:32:27.821Z,0
2019-05-17T00:33:27.606Z,0
2019-05-17T00:34:27.720Z,0
2019-05-17T00:35:29.158Z,0
2019-05-17T00:36:29.224Z,0
2019-05-17T00:37:31.586Z,0
2019-05-17T00:38:45.478Z,0
2019-05-17T00:39:32.851Z,0
2019-05-17T00:40:33.164Z,0
2019-05-17T00:41:34.017Z,0
2019-05-17T00:42:33.186Z,0
2019-05-17T00:43:33.184Z,0
2019-05-17T00:44:32.832Z,0
2019-05-17T00:45:33.808Z,0
2019-05-17T00:46:33.490Z,0
2019-05-17T00:47:34.446Z,0
2019-05-17T00:48:37.472Z,0
2019-05-17T00:49:37.331Z,0
2019-05-17T00:50:38.741Z,0
2019-05-17T00:51:38.042Z,0
2019-05-17T00:52:38.150Z,0
2019-05-17T00:53:38.824Z,0
2019-05-17T00:54:41.715Z,0
2019-05-17T00:55:41.942Z,0
2019-05-17T00:56:42.818Z,0
2019-05-17T00:57:43.197Z,0
2019-05-17T00:58:42.719Z,0
2019-05-17T00:59:42.526Z,0
2019-05-17T01:00:43.996Z,0
2019-05-17T01:01:43.679Z,0
2019-05-17T01:02:43.787Z,0
2019-05-17T01:03:44.189Z,0
2019-05-17T01:04:47.670Z,0
2019-05-17T01:05:48.014Z,0
2019-05-17T01:06:48.825Z,0
2019-05-17T01:07:48.679Z,0
2019-05-17T01:09:00.460Z,0
2019-05-17T01:09:48.435Z,0
2019-05-17T01:10:48.827Z,0
2019-05-17T01:11:48.933Z,0
2019-05-17T01:12:49.346Z,0
2019-05-17T01:13:51.825Z,0
2019-05-17T01:14:53.254Z,0
2019-05-17T01:15:53.106Z,0
2019-05-17T01:16:52.960Z,0
2019-05-17T01:17:53.372Z,0
2019-05-17T01:18:54.055Z,0
2019-05-17T01:19:57.195Z,0
2019-05-17T01:20:58.269Z,0
2019-05-17T01:21:58.369Z,0
2019-05-17T01:22:58.441Z,0
2019-05-17T01:23:57.979Z,0
2019-05-17T01:24:57.888Z,0
2019-05-17T01:25:58.774Z,0
2019-05-17T01:26:59.161Z,0
2019-05-17T01:28:01.580Z,0
2019-05-17T01:29:02.459Z,0
2019-05-17T01:30:02.720Z,0
2019-05-17T01:31:02.784Z,0
2019-05-17T01:32:03.009Z,0
2019-05-17T01:33:03.410Z,0
2019-05-17T01:34:03.521Z,0
2019-05-17T01:35:07.511Z,0
2019-05-17T01:36:07.882Z,0
2019-05-17T01:37:07.865Z,0
2019-05-17T01:38:07.773Z,0
2019-05-17T01:39:22.150Z,0
2019-05-17T01:40:09.138Z,0
2019-05-17T01:41:12.192Z,0
2019-05-17T01:42:12.040Z,0
2019-05-17T01:43:13.470Z,0
2019-05-17T01:44:13.366Z,0
2019-05-17T01:45:12.904Z,0
2019-05-17T01:46:13.579Z,0
2019-05-17T01:47:16.289Z,0
2019-05-17T01:48:16.368Z,0
2019-05-17T01:49:17.830Z,0
2019-05-17T01:50:18.393Z,0
2019-05-17T01:51:18.251Z,0
2019-05-17T01:52:18.199Z,0
2019-05-17T01:53:18.303Z,0
2019-05-17T01:54:18.410Z,0
2019-05-17T01:55:19.330Z,0
2019-05-17T01:56:22.366Z,0
2019-05-17T01:57:22.385Z,0
2019-05-17T01:58:23.287Z,0
2019-05-17T01:59:22.690Z,0
2019-05-17T02:00:23.282Z,0
2019-05-17T02:01:24.328Z,0
2019-05-17T02:02:24.305Z,0
2019-05-17T02:03:26.611Z,0
2019-05-17T02:04:26.761Z,0
2019-05-17T02:05:28.547Z,0
2019-05-17T02:06:27.803Z,0
2019-05-17T02:07:27.964Z,0
2019-05-17T02:08:27.803Z,0
2019-05-17T02:09:53.224Z,0
2019-05-17T02:10:28.618Z,0
2019-05-17T02:11:32.379Z,0
2019-05-17T02:12:32.272Z,0
2019-05-17T02:13:32.595Z,0
2019-05-17T02:14:32.719Z,0
2019-05-17T02:15:32.611Z,0
2019-05-17T02:16:32.946Z,0
2019-05-17T02:17:33.597Z,0
2019-05-17T02:18:33.845Z,0
2019-05-17T02:19:33.612Z,0
2019-05-17T02:20:36.941Z,0
2019-05-17T02:21:36.691Z,0
2019-05-17T02:22:38.363Z,0
2019-05-17T02:23:38.551Z,0
2019-05-17T02:24:38.446Z,0
2019-05-17T02:25:38.184Z,0
2019-05-17T02:26:37.636Z,0
2019-05-17T02:27:54.598Z,0
2019-05-17T02:28:41.324Z,0
2019-05-17T02:29:39.130Z,0
2019-05-17T02:30:43.853Z,0
2019-05-17T02:31:44.134Z,0
2019-05-17T02:32:43.019Z,0
2019-05-17T02:33:44.449Z,0
2019-05-17T02:34:48.138Z,0
2019-05-17T02:35:48.357Z,0
2019-05-17T02:36:48.209Z,0
2019-05-17T02:37:48.713Z,0
2019-05-17T02:38:44.383Z,0
2019-05-17T02:40:07.978Z,0
2019-05-17T02:40:48.215Z,0
2019-05-17T02:41:48.131Z,0
2019-05-17T02:42:48.364Z,0
2019-05-17T02:43:53.318Z,0
2019-05-17T02:44:52.916Z,0
2019-05-17T02:45:52.458Z,0
2019-05-17T02:46:54.039Z,0
2019-05-17T02:47:54.494Z,0
2019-05-17T02:48:54.036Z,0
2019-05-17T02:49:53.672Z,0
2019-05-17T02:50:58.979Z,0
2019-05-17T02:51:54.107Z,0
2019-05-17T02:52:58.100Z,0
2019-05-17T02:53:53.981Z,0
2019-05-17T02:54:57.853Z,0
2019-05-17T02:55:54.369Z,0
2019-05-17T02:56:54.517Z,0
2019-05-17T02:57:58.438Z,0
2019-05-17T02:58:58.360Z,0
2019-05-17T02:59:59.101Z,0
2019-05-17T03:01:04.603Z,0
2019-05-17T03:02:03.816Z,0
2019-05-17T03:03:02.979Z,0
2019-05-17T03:04:04.169Z,0
2019-05-17T03:05:03.535Z,0
2019-05-17T03:06:02.918Z,0
2019-05-17T03:07:04.235Z,0
2019-05-17T03:08:04.509Z,0
2019-05-17T03:09:03.707Z,0
2019-05-17T03:10:34.026Z,0
2019-05-17T03:11:08.671Z,0
2019-05-17T03:12:09.110Z,0
2019-05-17T03:13:04.477Z,0
2019-05-17T03:14:04.312Z,0
2019-05-17T03:15:12.577Z,0
2019-05-17T03:16:09.411Z,0
2019-05-17T03:17:08.642Z,0
2019-05-17T03:18:14.469Z,0
2019-05-17T03:19:12.918Z,0
2019-05-17T03:20:12.467Z,0
2019-05-17T03:21:09.602Z,0
2019-05-17T03:22:18.675Z,0
2019-05-17T03:23:12.606Z,0
2019-05-17T03:24:14.384Z,0
2019-05-17T03:25:14.769Z,0
2019-05-17T03:26:18.210Z,0
2019-05-17T03:27:14.144Z,0
2019-05-17T03:28:14.164Z,0
2019-05-17T03:29:14.998Z,0
2019-05-17T03:30:25.743Z,0
2019-05-17T03:31:26.165Z,0
2019-05-17T03:32:35.923Z,0
2019-05-17T03:33:26.381Z,0
2019-05-17T03:34:26.255Z,0
2019-05-17T03:35:37.293Z,0
2019-05-17T03:36:36.025Z,0
2019-05-17T03:37:49.258Z,0
2019-05-17T03:38:33.678Z,0
2019-05-17T03:39:33.112Z,0
2019-05-17T03:41:34.999Z,0
2019-05-17T03:41:54.155Z,0
2019-05-17T03:42:54.178Z,0
2019-05-17T03:43:58.613Z,5.63
2019-05-17T03:44:54.787Z,5.63
2019-05-17T03:45:53.769Z,5.63
2019-05-17T03:46:54.583Z,5.63
2019-05-17T03:47:58.517Z,5.63
2019-05-17T03:48:58.611Z,5.63
2019-05-17T03:50:03.680Z,5.63
2019-05-17T03:51:02.325Z,5.63
2019-05-17T03:51:58.667Z,5.63
2019-05-17T03:53:07.508Z,5.63
2019-05-17T03:54:03.727Z,11.25
2019-05-17T03:54:59.290Z,11.25
2019-05-17T03:56:02.850Z,11.25
2019-05-17T03:57:03.871Z,11.25
2019-05-17T03:58:08.578Z,11.25
2019-05-17T03:59:04.422Z,11.25
2019-05-17T04:00:03.978Z,11.25
2019-05-17T04:01:04.432Z,11.25
2019-05-17T04:02:08.661Z,16.88
2019-05-17T04:03:08.090Z,16.88
2019-05-17T04:04:09.254Z,16.88
2019-05-17T04:05:12.041Z,16.88
2019-05-17T04:06:13.038Z,16.88
2019-05-17T04:07:12.525Z,16.88
2019-05-17T04:08:14.443Z,22.5
2019-05-17T04:09:09.524Z,22.5
2019-05-17T04:10:09.882Z,16.88
2019-05-17T04:11:42.852Z,22.5
2019-05-17T04:12:13.979Z,22.5
2019-05-17T04:13:12.861Z,22.5
2019-05-17T04:14:14.620Z,22.5
2019-05-17T04:15:18.486Z,22.5
2019-05-17T04:16:23.581Z,22.5
2019-05-17T04:17:14.633Z,28.13
2019-05-17T04:18:18.662Z,28.13
2019-05-17T04:19:14.274Z,28.13
2019-05-17T04:20:14.523Z,33.75
2019-05-17T04:21:16.930Z,33.75
2019-05-17T04:22:14.771Z,39.38
2019-05-17T04:23:18.342Z,39.38
2019-05-17T04:24:17.819Z,45
2019-05-17T04:25:23.185Z,45
2019-05-17T04:26:18.953Z,45
2019-05-17T04:27:22.895Z,45
2019-05-17T04:28:22.613Z,39.38
2019-05-17T04:29:22.612Z,39.38
2019-05-17T04:30:23.631Z,39.38
2019-05-17T04:31:21.956Z,45
2019-05-17T04:32:23.914Z,45
2019-05-17T04:33:23.965Z,45
2019-05-17T04:34:27.602Z,45
2019-05-17T04:35:24.954Z,45
2019-05-17T04:36:23.932Z,45
2019-05-17T04:37:24.073Z,45
2019-05-17T04:38:24.148Z,39.38
2019-05-17T04:39:24.141Z,39.38
2019-05-17T04:40:28.363Z,45
2019-05-17T04:41:49.886Z,45
2019-05-17T04:42:28.097Z,45
2019-05-17T04:43:28.670Z,45
2019-05-17T04:44:29.036Z,45
2019-05-17T04:45:29.599Z,45
2019-05-17T04:46:32.404Z,50.63
2019-05-17T04:47:34.289Z,56.25
2019-05-17T04:48:32.414Z,61.88
2019-05-17T04:49:37.808Z,56.25
2019-05-17T04:50:34.110Z,56.25
2019-05-17T04:51:34.213Z,50.63
2019-05-17T04:52:33.843Z,56.25
2019-05-17T04:53:34.407Z,56.25
2019-05-17T04:54:34.394Z,61.88
2019-05-17T04:55:35.107Z,67.5
2019-05-17T04:56:42.420Z,67.5
2019-05-17T04:57:39.397Z,67.5
2019-05-17T04:58:42.645Z,67.5
2019-05-17T04:59:44.607Z,61.88
2019-05-17T05:00:42.783Z,56.25
2019-05-17T05:01:43.864Z,61.88
2019-05-17T05:02:39.520Z,67.5
2019-05-17T05:03:43.847Z,73.13
2019-05-17T05:04:43.902Z,73.13
2019-05-17T05:05:48.309Z,78.75
2019-05-17T05:06:44.220Z,84.38
2019-05-17T05:07:44.208Z,84.38
2019-05-17T05:08:44.112Z,84.38
2019-05-17T05:09:43.320Z,90
2019-05-17T05:10:49.181Z,95.63
2019-05-17T05:12:02.327Z,95.63
2019-05-17T05:12:44.669Z,84.38
2019-05-17T05:13:44.335Z,78.75
2019-05-17T05:14:44.453Z,84.38
2019-05-17T05:15:51.991Z,95.63
2019-05-17T05:16:48.064Z,95.63
2019-05-17T05:17:48.886Z,101.25
2019-05-17T05:18:48.867Z,95.63
2019-05-17T05:19:49.459Z,84.38
2019-05-17T05:20:52.446Z,84.38
2019-05-17T05:21:48.544Z,90
2019-05-17T05:22:49.601Z,90
2019-05-17T05:23:48.983Z,90
2019-05-17T05:24:49.382Z,90
2019-05-17T05:25:52.093Z,90
2019-05-17T05:26:51.683Z,90
2019-05-17T05:27:51.642Z,90
2019-05-17T05:28:55.207Z,101.25
2019-05-17T05:29:52.289Z,106.88
2019-05-17T05:30:53.112Z,101.25
2019-05-17T05:31:53.495Z,101.25
2019-05-17T05:32:53.638Z,95.63
2019-05-17T05:33:53.750Z,106.88
2019-05-17T05:34:57.673Z,118.13
2019-05-17T05:35:56.993Z,118.13
2019-05-17T05:36:57.808Z,112.5
2019-05-17T05:37:58.922Z,112.5
2019-05-17T05:38:58.665Z,106.88
2019-05-17T05:40:01.977Z,106.88
2019-05-17T05:40:58.557Z,112.5
2019-05-17T05:42:13.920Z,101.25
2019-05-17T05:42:59.495Z,106.88
2019-05-17T05:44:01.800Z,106.88
2019-05-17T05:45:03.062Z,101.25
2019-05-17T05:46:02.502Z,95.63
2019-05-17T05:47:02.416Z,95.63
2019-05-17T05:48:03.075Z,101.25
2019-05-17T05:49:03.183Z,106.88
2019-05-17T05:50:02.981Z,112.5
2019-05-17T05:51:05.040Z,118.13
2019-05-17T05:52:03.940Z,112.5
2019-05-17T05:53:07.108Z,118.13
2019-05-17T05:54:07.059Z,123.75
2019-05-17T05:55:06.797Z,123.75
2019-05-17T05:56:08.997Z,129.38
2019-05-17T05:57:08.300Z,123.75
2019-05-17T05:58:08.640Z,118.13
2019-05-17T05:59:08.478Z,118.13
2019-05-17T06:00:09.198Z,140.63
2019-05-17T06:01:12.935Z,140.63
2019-05-17T06:02:12.504Z,123.75
2019-05-17T06:03:17.221Z,129.38
2019-05-17T06:04:17.067Z,140.63
2019-05-17T06:05:16.995Z,151.88
2019-05-17T06:06:13.739Z,151.88
2019-05-17T06:07:14.521Z,146.25
2019-05-17T06:08:17.465Z,146.25
2019-05-17T06:09:17.421Z,151.88
2019-05-17T06:10:18.459Z,146.25
2019-05-17T06:11:18.114Z,140.63
2019-05-17T06:12:39.516Z,140.63
2019-05-17T06:13:21.698Z,135
2019-05-17T06:14:21.569Z,118.13
2019-05-17T06:15:19.040Z,118.13
2019-05-17T06:16:18.719Z,123.75
2019-05-17T06:17:21.580Z,146.25
2019-05-17T06:18:22.800Z,135
2019-05-17T06:19:22.600Z,129.38
2019-05-17T06:20:22.534Z,140.63
2019-05-17T06:21:23.186Z,123.75
2019-05-17T06:22:22.723Z,123.75
2019-05-17T06:23:23.678Z,129.38
2019-05-17T06:24:23.082Z,135
2019-05-17T06:25:28.730Z,140.63
2019-05-17T06:26:24.422Z,157.5
2019-05-17T06:27:26.729Z,157.5
2019-05-17T06:28:27.512Z,151.88
2019-05-17T06:29:27.923Z,157.5
2019-05-17T06:30:28.608Z,157.5
2019-05-17T06:31:29.679Z,163.13
2019-05-17T06:32:28.463Z,168.75
2019-05-17T06:33:47.464Z,157.5
2019-05-17T06:34:28.139Z,157.5
2019-05-17T06:35:32.668Z,163.13
2019-05-17T06:36:32.809Z,180
2019-05-17T06:37:33.081Z,196.88
2019-05-17T06:38:33.401Z,208.13
2019-05-17T06:39:33.377Z,213.75
2019-05-17T06:40:32.527Z,202.5
2019-05-17T06:41:32.925Z,196.88
2019-05-17T06:42:52.875Z,196.88
2019-05-17T06:43:34.590Z,225
2019-05-17T06:44:37.988Z,253.13
2019-05-17T06:45:37.756Z,236.25
2019-05-17T06:46:38.459Z,241.88
2019-05-17T06:47:38.705Z,253.13
2019-05-17T06:48:39.047Z,241.88
2019-05-17T06:49:38.877Z,225
2019-05-17T06:50:39.473Z,230.63
2019-05-17T06:51:39.456Z,208.13
2019-05-17T06:52:44.738Z,208.13
2019-05-17T06:53:43.518Z,219.38
2019-05-17T06:54:41.695Z,230.63
2019-05-17T06:55:42.741Z,230.63
2019-05-17T06:56:43.228Z,230.63
2019-05-17T06:57:43.661Z,236.25
2019-05-17T06:58:43.653Z,286.88
2019-05-17T06:59:44.074Z,281.25
2019-05-17T07:00:49.739Z,241.88
2019-05-17T07:01:50.343Z,258.75
2019-05-17T07:02:49.655Z,270
2019-05-17T07:03:46.468Z,292.5
2019-05-17T07:04:46.584Z,309.38
2019-05-17T07:05:47.000Z,376.88
2019-05-17T07:06:49.505Z,444.38
2019-05-17T07:07:51.112Z,360
2019-05-17T07:08:51.108Z,343.13
2019-05-17T07:09:54.800Z,534.38
2019-05-17T07:10:51.240Z,393.75
2019-05-17T07:11:51.356Z,393.75
2019-05-17T07:13:10.561Z,421.88
2019-05-17T07:13:51.526Z,461.25
2019-05-17T07:14:51.943Z,455.63
2019-05-17T07:16:06.632Z,455.63
2019-05-17T07:16:55.391Z,405
2019-05-17T07:17:56.266Z,500.63
2019-05-17T07:18:56.500Z,360
2019-05-17T07:19:56.218Z,343.13
2019-05-17T07:20:56.201Z,618.75
2019-05-17T07:21:56.734Z,495
2019-05-17T07:23:00.132Z,438.75
2019-05-17T07:24:00.522Z,416.25
2019-05-17T07:25:05.881Z,483.75
2019-05-17T07:26:01.090Z,1018.13
2019-05-17T07:27:01.859Z,540
2019-05-17T07:28:06.756Z,618.75
2019-05-17T07:29:04.758Z,309.38
2019-05-17T07:30:04.790Z,461.25
2019-05-17T07:31:06.688Z,393.75
2019-05-17T07:32:05.912Z,410.63
2019-05-17T07:33:06.211Z,354.38
2019-05-17T07:34:12.014Z,298.13
2019-05-17T07:35:06.897Z,478.13
2019-05-17T07:36:06.154Z,478.13
2019-05-17T07:37:06.861Z,354.38
2019-05-17T07:38:10.529Z,590.63
2019-05-17T07:39:10.729Z,410.63
2019-05-17T07:40:25.582Z,506.25
2019-05-17T07:41:10.280Z,399.38
2019-05-17T07:42:11.204Z,528.75
2019-05-17T07:43:26.203Z,500.63
2019-05-17T07:44:11.122Z,421.88
2019-05-17T07:45:12.183Z,630
2019-05-17T07:46:11.588Z,517.5
2019-05-17T07:47:12.621Z,382.5
2019-05-17T07:48:15.210Z,624.38
2019-05-17T07:49:16.202Z,1271.25
2019-05-17T07:50:16.397Z,1456.88
2019-05-17T07:51:15.838Z,1485
2019-05-17T07:52:16.797Z,2008.13
2019-05-17T07:53:17.088Z,2148.75
2019-05-17T07:54:15.953Z,2182.5
2019-05-17T07:55:30.260Z,2345.63
2019-05-17T07:56:15.863Z,2193.75
2019-05-17T07:57:16.278Z,2092.5
2019-05-17T07:58:16.988Z,2199.38
2019-05-17T07:59:17.039Z,2148.75
2019-05-17T08:00:19.933Z,2160
2019-05-17T08:01:20.913Z,2081.25
2019-05-17T08:02:21.235Z,2075.63
2019-05-17T08:03:26.914Z,2131.88
2019-05-17T08:04:22.557Z,2199.38
2019-05-17T08:05:21.584Z,2227.5
2019-05-17T08:06:21.795Z,2148.75
2019-05-17T08:07:25.151Z,2008.13
2019-05-17T08:08:21.558Z,1856.25
2019-05-17T08:09:25.721Z,1591.88
2019-05-17T08:10:25.920Z,1063.13
2019-05-17T08:11:26.897Z,534.38
2019-05-17T08:12:27.436Z,495
2019-05-17T08:13:45.433Z,995.63
2019-05-17T08:14:45.578Z,810
2019-05-17T08:15:27.527Z,601.88
2019-05-17T08:16:26.979Z,607.5
2019-05-17T08:17:27.402Z,1012.5
2019-05-17T08:18:29.577Z,1231.88
2019-05-17T08:19:30.793Z,613.13
2019-05-17T08:20:31.325Z,551.25
2019-05-17T08:21:30.850Z,748.13
2019-05-17T08:22:30.879Z,849.38
2019-05-17T08:23:31.386Z,1321.88
2019-05-17T08:24:32.984Z,1158.75
2019-05-17T08:25:32.692Z,646.88
2019-05-17T08:26:35.297Z,635.63
2019-05-17T08:27:36.143Z,551.25
2019-05-17T08:28:40.188Z,1125
2019-05-17T08:29:36.769Z,1271.25
2019-05-17T08:30:41.320Z,1215
2019-05-17T08:31:40.173Z,2115
2019-05-17T08:32:40.513Z,2053.13
2019-05-17T08:33:37.077Z,2227.5
2019-05-17T08:34:40.190Z,2250
2019-05-17T08:35:39.864Z,2255.63
2019-05-17T08:36:40.753Z,2255.63
2019-05-17T08:37:42.199Z,2092.5
2019-05-17T08:38:41.518Z,2160
2019-05-17T08:39:46.210Z,2328.75
2019-05-17T08:40:46.509Z,2430
2019-05-17T08:41:46.040Z,2328.75
2019-05-17T08:42:46.814Z,2075.63
2019-05-17T08:44:00.446Z,1929.38
2019-05-17T08:44:49.738Z,1856.25
2019-05-17T08:45:46.570Z,1726.88
2019-05-17T08:46:46.661Z,1620
2019-05-17T08:47:51.376Z,1816.88
2019-05-17T08:48:46.871Z,1895.63
2019-05-17T08:49:49.494Z,1771.88
2019-05-17T08:50:55.263Z,1816.88
2019-05-17T08:51:50.649Z,1811.25
2019-05-17T08:52:55.148Z,1681.88
2019-05-17T08:53:50.568Z,1783.13
2019-05-17T08:54:54.883Z,1811.25
2019-05-17T08:55:52.379Z,1496.25
2019-05-17T08:56:51.688Z,1338.75
2019-05-17T08:57:51.334Z,1440
2019-05-17T08:58:51.782Z,1546.88
2019-05-17T08:59:52.347Z,1501.88
2019-05-17T09:00:55.635Z,1400.63
2019-05-17T09:01:56.851Z,1411.88
2019-05-17T09:02:55.146Z,1378.13
2019-05-17T09:03:55.739Z,1333.13
2019-05-17T09:04:56.596Z,1327.5
2019-05-17T09:06:01.995Z,1316.25
2019-05-17T09:06:55.840Z,1305
2019-05-17T09:07:57.025Z,1299.38
2019-05-17T09:08:57.032Z,1226.25
2019-05-17T09:09:56.755Z,1198.13
2019-05-17T09:11:03.281Z,1215
2019-05-17T09:12:02.595Z,1333.13
2019-05-17T09:13:01.159Z,1344.38
2019-05-17T09:14:15.771Z,1203.75
2019-05-17T09:15:00.734Z,1181.25
2019-05-17T09:16:00.583Z,1226.25
2019-05-17T09:17:01.455Z,1271.25
2019-05-17T09:18:00.904Z,1293.75
2019-05-17T09:19:06.697Z,1282.5
2019-05-17T09:20:06.034Z,1299.38
2019-05-17T09:21:02.796Z,1400.63
2019-05-17T09:22:05.090Z,1496.25
2019-05-17T09:23:05.622Z,1558.13
2019-05-17T09:24:07.107Z,1485
2019-05-17T09:25:06.776Z,1423.13
2019-05-17T09:26:06.278Z,1535.63
2019-05-17T09:27:06.433Z,1530
2019-05-17T09:28:09.873Z,1631.25
2019-05-17T09:29:07.499Z,1608.75
2019-05-17T09:30:09.322Z,1501.88
2019-05-17T09:31:10.525Z,1693.13
2019-05-17T09:32:11.377Z,1698.75
2019-05-17T09:33:12.609Z,1755
2019-05-17T09:34:11.005Z,1800
2019-05-17T09:35:11.322Z,1760.63
2019-05-17T09:36:12.064Z,1822.5
2019-05-17T09:37:18.882Z,1890
2019-05-17T09:38:15.962Z,1603.13
2019-05-17T09:39:21.239Z,1800
2019-05-17T09:40:19.835Z,1923.75
2019-05-17T09:41:16.228Z,1991.25
2019-05-17T09:42:16.672Z,1839.38
2019-05-17T09:43:20.780Z,1620
2019-05-17T09:44:31.230Z,1726.88
2019-05-17T09:45:20.786Z,1749.38
2019-05-17T09:46:21.552Z,1738.13
2019-05-17T09:47:21.093Z,1845
2019-05-17T09:48:21.551Z,1996.88
2019-05-17T09:49:21.440Z,1918.13
2019-05-17T09:50:20.909Z,1783.13
2019-05-17T09:51:21.591Z,1901.25
2019-05-17T09:52:22.000Z,1946.25
2019-05-17T09:53:22.712Z,1985.63
2019-05-17T09:54:38.873Z,2036.25
2019-05-17T09:55:27.374Z,2086.88
2019-05-17T09:56:26.343Z,2008.13
2019-05-17T09:57:26.429Z,1878.75
2019-05-17T09:58:27.009Z,1856.25
2019-05-17T09:59:29.679Z,1946.25
2019-05-17T10:00:29.540Z,1935
2019-05-17T10:01:30.959Z,1912.5
2019-05-17T10:02:31.018Z,1951.88
2019-05-17T10:03:36.626Z,1929.38
2019-05-17T10:04:31.539Z,2053.13
2019-05-17T10:05:36.943Z,2086.88
2019-05-17T10:06:33.519Z,1985.63
2019-05-17T10:07:35.276Z,1991.25
2019-05-17T10:08:34.666Z,1895.63
2019-05-17T10:09:35.858Z,1861.88
2019-05-17T10:10:36.506Z,1873.13
2019-05-17T10:11:36.780Z,1957.5
2019-05-17T10:12:36.537Z,1738.13
2019-05-17T10:13:40.645Z,1721.25
2019-05-17T10:14:44.689Z,1890
2019-05-17T10:15:41.322Z,1850.63
2019-05-17T10:16:41.976Z,1873.13
2019-05-17T10:17:40.799Z,1867.5
2019-05-17T10:18:41.227Z,1912.5
2019-05-17T10:19:41.387Z,1906.88
2019-05-17T10:20:41.805Z,1321.88
2019-05-17T10:21:42.215Z,1012.5
2019-05-17T10:22:45.678Z,489.38
2019-05-17T10:23:49.667Z,511.88
2019-05-17T10:24:54.616Z,821.25
2019-05-17T10:25:45.861Z,843.75
2019-05-17T10:26:46.516Z,1850.63
2019-05-17T10:27:46.738Z,579.38
2019-05-17T10:28:45.988Z,410.63
2019-05-17T10:29:46.117Z,365.63
2019-05-17T10:30:46.174Z,371.25
2019-05-17T10:31:50.293Z,376.88
2019-05-17T10:32:52.603Z,388.13
2019-05-17T10:33:50.781Z,478.13
2019-05-17T10:34:51.906Z,500.63
2019-05-17T10:35:52.207Z,433.13
2019-05-17T10:36:51.131Z,455.63
2019-05-17T10:37:51.680Z,765
2019-05-17T10:38:51.220Z,736.88
2019-05-17T10:39:52.930Z,613.13
2019-05-17T10:40:55.436Z,1479.38
2019-05-17T10:41:55.588Z,731.25
2019-05-17T10:42:55.870Z,545.63
2019-05-17T10:43:57.561Z,1856.25
2019-05-17T10:45:05.767Z,1620
2019-05-17T10:45:56.848Z,1530
2019-05-17T10:46:56.802Z,1890
2019-05-17T10:47:57.403Z,759.38
2019-05-17T10:49:00.671Z,883.13
2019-05-17T10:50:00.645Z,1794.38
2019-05-17T10:51:00.572Z,1777.5
2019-05-17T10:52:00.188Z,506.25
2019-05-17T10:53:00.577Z,500.63
2019-05-17T10:54:04.351Z,652.5
2019-05-17T10:55:01.982Z,1535.63
2019-05-17T10:56:02.682Z,556.88
2019-05-17T10:57:05.339Z,691.88
2019-05-17T10:58:06.754Z,1085.63
2019-05-17T10:59:05.709Z,613.13
2019-05-17T11:00:06.086Z,405
2019-05-17T11:01:10.121Z,405
2019-05-17T11:02:10.525Z,388.13
2019-05-17T11:03:12.116Z,382.5
2019-05-17T11:04:06.255Z,388.13
2019-05-17T11:05:06.877Z,393.75
2019-05-17T11:06:07.604Z,416.25
2019-05-17T11:07:12.132Z,450
2019-05-17T11:08:10.956Z,489.38
2019-05-17T11:09:10.410Z,753.75
2019-05-17T11:10:12.410Z,1614.38
2019-05-17T11:11:12.079Z,1485
2019-05-17T11:12:10.550Z,1299.38
2019-05-17T11:13:10.679Z,1513.13
2019-05-17T11:14:10.851Z,1653.75
2019-05-17T11:15:26.414Z,1265.63
2019-05-17T11:16:11.580Z,1518.75
2019-05-17T11:17:16.497Z,1530
2019-05-17T11:18:15.806Z,1147.5
2019-05-17T11:19:14.386Z,1215
2019-05-17T11:20:15.172Z,1496.25
2019-05-17T11:21:14.556Z,534.38
2019-05-17T11:22:15.960Z,624.38
2019-05-17T11:23:16.451Z,573.75
2019-05-17T11:24:16.233Z,461.25
2019-05-17T11:25:17.939Z,393.75
2019-05-17T11:26:18.320Z,354.38
2019-05-17T11:27:18.494Z,326.25
2019-05-17T11:28:19.531Z,320.63
2019-05-17T11:29:21.064Z,354.38
2019-05-17T11:30:23.266Z,410.63
2019-05-17T11:31:22.050Z,472.5
2019-05-17T11:32:22.474Z,815.63
2019-05-17T11:33:23.203Z,810
2019-05-17T11:34:25.557Z,703.13
2019-05-17T11:35:25.024Z,641.25
2019-05-17T11:36:25.460Z,472.5
2019-05-17T11:37:28.283Z,444.38
2019-05-17T11:38:26.815Z,703.13
2019-05-17T11:39:26.951Z,568.13
2019-05-17T11:40:27.671Z,511.88
2019-05-17T11:41:40.313Z,433.13
2019-05-17T11:42:29.946Z,495
2019-05-17T11:43:29.074Z,652.5
2019-05-17T11:44:32.494Z,680.63
2019-05-17T11:45:44.224Z,382.5
2019-05-17T11:46:47.345Z,376.88
2019-05-17T11:47:31.485Z,376.88
2019-05-17T11:48:36.096Z,360
2019-05-17T11:49:33.567Z,348.75
2019-05-17T11:50:34.002Z,343.13
2019-05-17T11:51:39.085Z,309.38
2019-05-17T11:52:35.571Z,286.88
2019-05-17T11:53:36.015Z,275.63
2019-05-17T11:54:37.120Z,275.63
2019-05-17T11:55:37.860Z,270
2019-05-17T11:56:38.928Z,270
2019-05-17T11:57:39.101Z,270
2019-05-17T11:58:39.265Z,275.63
2019-05-17T11:59:39.771Z,292.5
2019-05-17T12:00:40.214Z,320.63
2019-05-17T12:01:41.452Z,348.75
2019-05-17T12:02:43.779Z,371.25
2019-05-17T12:03:41.490Z,393.75
2019-05-17T12:04:41.927Z,399.38
2019-05-17T12:05:42.337Z,410.63
2019-05-17T12:06:43.666Z,438.75
2019-05-17T12:07:43.796Z,506.25
2019-05-17T12:08:44.228Z,810
2019-05-17T12:09:53.347Z,506.25
2019-05-17T12:10:45.562Z,438.75
2019-05-17T12:11:44.588Z,568.13
2019-05-17T12:12:45.053Z,399.38
2019-05-17T12:13:49.059Z,337.5
2019-05-17T12:14:45.786Z,326.25
2019-05-17T12:16:00.498Z,315
2019-05-17T12:16:47.214Z,315
2019-05-17T12:17:50.209Z,315
2019-05-17T12:18:51.986Z,309.38
2019-05-17T12:19:54.124Z,303.75
2019-05-17T12:20:53.313Z,298.13
2019-05-17T12:21:52.928Z,303.75
2019-05-17T12:22:55.097Z,320.63
2019-05-17T12:23:54.809Z,348.75
2019-05-17T12:24:55.324Z,388.13
2019-05-17T12:25:55.603Z,405
2019-05-17T12:27:02.792Z,360
2019-05-17T12:27:58.946Z,331.88
2019-05-17T12:28:58.263Z,309.38
2019-05-17T12:29:58.799Z,286.88
2019-05-17T12:30:57.953Z,270
2019-05-17T12:31:58.824Z,247.5
2019-05-17T12:32:59.697Z,230.63
2019-05-17T12:34:03.917Z,219.38
2019-05-17T12:35:03.991Z,208.13
2019-05-17T12:36:03.129Z,208.13
2019-05-17T12:37:05.660Z,208.13
2019-05-17T12:38:06.837Z,213.75
2019-05-17T12:39:04.732Z,213.75
2019-05-17T12:40:06.508Z,219.38
2019-05-17T12:41:07.401Z,225
2019-05-17T12:42:11.482Z,236.25
2019-05-17T12:43:08.113Z,247.5
2019-05-17T12:44:11.861Z,258.75
2019-05-17T12:45:10.329Z,264.38
2019-05-17T12:46:22.713Z,270
2019-05-17T12:47:10.724Z,270
2019-05-17T12:48:13.799Z,264.38
2019-05-17T12:49:15.919Z,264.38
2019-05-17T12:50:13.044Z,253.13
2019-05-17T12:51:15.364Z,241.88
2019-05-17T12:52:15.807Z,230.63
2019-05-17T12:53:16.735Z,225
2019-05-17T12:54:16.624Z,230.63
2019-05-17T12:55:17.499Z,236.25
2019-05-17T12:56:18.127Z,236.25
2019-05-17T12:57:21.750Z,247.5
2019-05-17T12:58:19.652Z,258.75
2019-05-17T12:59:20.685Z,264.38
2019-05-17T13:00:21.547Z,264.38
2019-05-17T13:01:24.594Z,264.38
2019-05-17T13:02:25.109Z,264.38
2019-05-17T13:03:23.095Z,264.38
2019-05-17T13:04:24.576Z,258.75
2019-05-17T13:05:26.129Z,253.13
2019-05-17T13:06:24.891Z,253.13
2019-05-17T13:07:24.932Z,258.75
2019-05-17T13:08:27.529Z,270
2019-05-17T13:09:27.959Z,281.25
2019-05-17T13:10:26.960Z,298.13
2019-05-17T13:11:29.921Z,320.63
2019-05-17T13:12:26.540Z,348.75
2019-05-17T13:13:30.058Z,489.38
2019-05-17T13:14:29.728Z,376.88
2019-05-17T13:15:27.774Z,545.63
2019-05-17T13:16:38.880Z,613.13
2019-05-17T13:17:30.425Z,511.88
2019-05-17T13:18:32.541Z,568.13
2019-05-17T13:19:33.170Z,596.25